createdAt,value
2018-06-27T00:02:05.903Z,1.40
2018-06-27T00:04:34.890Z,1.10
2018-06-27T00:07:03.883Z,1.40
2018-06-27T00:09:32.790Z,1.55
2018-06-27T00:12:02.029Z,1.10
2018-06-27T00:14:31.006Z,1.00
2018-06-27T00:17:00.083Z,1.20
2018-06-27T00:19:29.151Z,1.20
2018-06-27T00:21:58.005Z,1.10
2018-06-27T00:24:27.932Z,1.22
2018-06-27T00:26:57.063Z,1.27
2018-06-27T00:29:26.017Z,0.95
2018-06-27T00:31:54.959Z,1.12
2018-06-27T00:34:23.838Z,0.90
2018-06-27T00:36:52.998Z,1.07
2018-06-27T00:39:21.964Z,1.00
2018-06-27T00:41:51.129Z,1.15
2018-06-27T00:44:20.227Z,1.00
2018-06-27T00:46:49.353Z,0.80
2018-06-27T00:49:18.459Z,1.00
2018-06-27T00:51:47.483Z,0.90
2018-06-27T00:54:16.411Z,0.98
2018-06-27T00:56:45.353Z,1.22
2018-06-27T00:59:14.202Z,1.00
2018-06-27T01:01:43.341Z,0.88
2018-06-27T01:04:12.664Z,0.93
2018-06-27T01:06:41.535Z,0.80
2018-06-27T01:09:11.293Z,1.02
2018-06-27T01:11:40.294Z,1.00
2018-06-27T01:14:09.306Z,0.88
2018-06-27T01:16:38.786Z,0.80
2018-06-27T01:19:07.738Z,1.12
2018-06-27T01:21:36.714Z,0.95
2018-06-27T01:24:05.765Z,1.02
2018-06-27T01:26:34.819Z,0.70
2018-06-27T01:29:03.905Z,1.07
2018-06-27T01:31:32.857Z,1.00
2018-06-27T01:34:01.699Z,1.10
2018-06-27T01:36:30.583Z,1.02
2018-06-27T01:38:59.452Z,1.00
2018-06-27T01:41:28.625Z,0.70
2018-06-27T01:43:57.412Z,0.98
2018-06-27T01:46:26.351Z,0.70
2018-06-27T01:48:55.298Z,1.00
2018-06-27T01:51:24.251Z,0.90
2018-06-27T01:53:53.333Z,0.62
2018-06-27T01:56:22.336Z,1.10
2018-06-27T01:58:51.277Z,0.93
2018-06-27T02:01:20.469Z,1.00
2018-06-27T02:03:49.527Z,0.80
2018-06-27T02:06:18.609Z,0.90
2018-06-27T02:08:47.701Z,0.80
2018-06-27T02:11:17.064Z,1.00
2018-06-27T02:13:46.196Z,0.80
2018-06-27T02:16:15.154Z,0.78
2018-06-27T02:18:44.068Z,0.60
2018-06-27T02:21:13.054Z,0.70
2018-06-27T02:23:42.043Z,0.80
2018-06-27T02:26:10.972Z,1.00
2018-06-27T02:28:40.852Z,0.75
2018-06-27T02:31:09.995Z,0.70
2018-06-27T02:33:38.811Z,0.80
2018-06-27T02:36:07.828Z,0.90
2018-06-27T02:38:36.862Z,0.70
2018-06-27T02:41:05.814Z,0.70
2018-06-27T02:43:34.763Z,0.68
2018-06-27T02:46:03.657Z,0.75
2018-06-27T02:48:32.598Z,0.60
2018-06-27T02:51:01.638Z,0.80
2018-06-27T02:53:34.767Z,0.93
2018-06-27T02:56:03.926Z,0.65
2018-06-27T02:58:32.974Z,0.78
2018-06-27T03:01:02.810Z,0.60
2018-06-27T03:03:31.979Z,1.00
2018-06-27T03:06:00.930Z,0.85
2018-06-27T03:08:29.947Z,0.82
2018-06-27T03:10:59.012Z,0.80
2018-06-27T03:13:28.035Z,0.80
2018-06-27T03:15:58.931Z,0.65
2018-06-27T03:18:27.936Z,0.85
2018-06-27T03:20:56.757Z,1.00
2018-06-27T03:23:25.850Z,0.62
2018-06-27T03:25:54.955Z,0.80
2018-06-27T03:28:23.790Z,1.05
2018-06-27T03:30:52.595Z,0.93
2018-06-27T03:33:21.767Z,1.07
2018-06-27T03:35:50.801Z,0.85
2018-06-27T03:38:19.960Z,0.85
2018-06-27T03:40:48.982Z,0.80
2018-06-27T03:43:17.882Z,1.15
2018-06-27T03:45:46.888Z,0.90
2018-06-27T03:48:15.792Z,1.10
2018-06-27T03:50:44.930Z,0.90
2018-06-27T03:53:13.812Z,0.72
2018-06-27T03:55:42.862Z,1.25
2018-06-27T03:58:11.846Z,1.22
2018-06-27T04:00:40.969Z,0.90
2018-06-27T04:03:09.920Z,1.00
2018-06-27T04:05:38.829Z,0.90
2018-06-27T04:08:07.829Z,1.00
2018-06-27T04:10:36.829Z,0.90
2018-06-27T04:13:06.260Z,0.95
2018-06-27T04:15:37.302Z,0.85
2018-06-27T04:18:06.514Z,0.90
2018-06-27T04:20:35.578Z,0.90
2018-06-27T04:23:04.632Z,0.90
2018-06-27T04:25:33.620Z,0.80
2018-06-27T04:28:02.814Z,0.85
2018-06-27T04:30:31.803Z,0.85
2018-06-27T04:33:01.001Z,0.90
2018-06-27T04:35:29.801Z,0.82
2018-06-27T04:37:58.750Z,0.82
2018-06-27T04:40:27.876Z,1.10
2018-06-27T04:42:56.820Z,0.75
2018-06-27T04:45:25.718Z,0.85
2018-06-27T04:47:54.763Z,1.00
2018-06-27T04:50:23.770Z,0.93
2018-06-27T04:52:52.743Z,1.15
2018-06-27T04:55:21.841Z,1.00
2018-06-27T04:57:50.770Z,0.80
2018-06-27T05:00:19.861Z,0.80
2018-06-27T05:02:48.868Z,1.00
2018-06-27T05:05:18.462Z,0.90
2018-06-27T05:07:47.525Z,0.62
2018-06-27T05:10:16.421Z,0.80
2018-06-27T05:12:45.521Z,0.78
2018-06-27T05:15:14.523Z,0.90
2018-06-27T05:17:43.648Z,0.82
2018-06-27T05:20:12.607Z,1.35
2018-06-27T05:22:41.493Z,0.78
2018-06-27T05:25:10.530Z,0.90
2018-06-27T05:27:39.774Z,0.98
2018-06-27T05:30:08.985Z,0.90
2018-06-27T05:32:38.177Z,0.90
2018-06-27T05:35:07.136Z,0.82
2018-06-27T05:37:36.083Z,0.95
2018-06-27T05:40:05.226Z,0.88
2018-06-27T05:42:34.154Z,1.17
2018-06-27T05:45:03.235Z,1.15
2018-06-27T05:47:32.310Z,0.93
2018-06-27T05:50:01.451Z,1.10
2018-06-27T05:52:30.337Z,1.17
2018-06-27T05:55:04.099Z,1.00
2018-06-27T05:57:33.092Z,1.00
2018-06-27T06:00:02.070Z,0.95
2018-06-27T06:02:31.130Z,1.25
2018-06-27T06:05:00.038Z,1.10
2018-06-27T06:07:28.849Z,1.32
2018-06-27T06:09:57.629Z,1.37
2018-06-27T06:12:26.417Z,1.32
2018-06-27T06:14:55.616Z,1.22
2018-06-27T06:17:24.449Z,1.12
2018-06-27T06:19:53.281Z,1.32
2018-06-27T06:22:21.974Z,1.20
2018-06-27T06:24:50.780Z,1.17
2018-06-27T06:27:19.508Z,1.70
2018-06-27T06:29:48.267Z,1.10
2018-06-27T06:32:17.409Z,1.02
2018-06-27T06:34:46.581Z,1.52
2018-06-27T06:37:15.567Z,1.32
2018-06-27T06:39:44.446Z,1.15
2018-06-27T06:42:13.719Z,1.30
2018-06-27T06:44:42.860Z,1.47
2018-06-27T06:47:11.742Z,1.20
2018-06-27T06:49:40.454Z,1.40
2018-06-27T06:52:09.403Z,1.40
2018-06-27T06:54:38.161Z,2.05
2018-06-27T06:57:06.888Z,2.30
2018-06-27T06:59:35.778Z,2.25
2018-06-27T07:02:04.659Z,1.80
2018-06-27T07:04:33.467Z,1.70
2018-06-27T07:07:02.513Z,1.90
2018-06-27T07:09:31.467Z,1.35
2018-06-27T07:12:00.468Z,1.70
2018-06-27T07:14:29.483Z,1.50
2018-06-27T07:16:58.321Z,1.98
2018-06-27T07:19:27.241Z,1.55
2018-06-27T07:21:56.467Z,1.95
2018-06-27T07:24:25.525Z,1.45
2018-06-27T07:26:54.840Z,1.40
2018-06-27T07:29:23.777Z,1.40
2018-06-27T07:31:52.551Z,1.62
2018-06-27T07:34:21.287Z,1.67
2018-06-27T07:36:50.303Z,1.20
2018-06-27T07:39:19.245Z,1.52
2018-06-27T07:41:48.188Z,2.00
2018-06-27T07:44:17.285Z,1.32
2018-06-27T07:46:46.342Z,1.27
2018-06-27T07:49:15.360Z,1.05
2018-06-27T07:51:44.369Z,1.37
2018-06-27T07:54:13.316Z,0.93
2018-06-27T07:56:42.319Z,1.05
2018-06-27T07:59:11.390Z,1.10
2018-06-27T08:01:40.344Z,1.37
2018-06-27T08:04:09.531Z,1.45
2018-06-27T08:06:45.963Z,1.37
2018-06-27T08:09:14.950Z,1.20
2018-06-27T08:11:44.374Z,1.02
2018-06-27T08:14:13.248Z,1.27
2018-06-27T08:16:42.359Z,1.05
2018-06-27T08:19:11.387Z,1.27
2018-06-27T08:21:40.344Z,1.10
2018-06-27T08:24:09.408Z,1.10
2018-06-27T08:26:38.365Z,1.17
2018-06-27T08:29:07.337Z,1.00
2018-06-27T08:31:36.246Z,0.90
2018-06-27T08:34:05.203Z,1.07
2018-06-27T08:36:34.402Z,1.10
2018-06-27T08:39:04.036Z,0.90
2018-06-27T08:41:33.047Z,1.17
2018-06-27T08:44:02.076Z,1.35
2018-06-27T08:46:31.233Z,1.00
2018-06-27T08:49:00.142Z,0.93
2018-06-27T08:51:29.105Z,0.75
2018-06-27T08:53:58.179Z,1.00
2018-06-27T08:56:27.107Z,0.82
2018-06-27T08:58:56.281Z,1.10
2018-06-27T09:01:25.474Z,0.93
2018-06-27T09:03:54.520Z,0.93
2018-06-27T09:06:23.621Z,0.90
2018-06-27T09:08:53.183Z,1.07
2018-06-27T09:11:22.218Z,0.88
2018-06-27T09:13:51.300Z,1.10
2018-06-27T09:16:20.222Z,0.90
2018-06-27T09:18:49.171Z,0.80
2018-06-27T09:21:18.401Z,0.85
2018-06-27T09:23:47.287Z,0.85
2018-06-27T09:26:16.195Z,0.80
2018-06-27T09:28:45.075Z,1.12
2018-06-27T09:31:14.122Z,0.95
2018-06-27T09:33:43.200Z,1.07
2018-06-27T09:36:12.244Z,1.02
2018-06-27T09:38:41.088Z,0.95
2018-06-27T09:41:10.016Z,0.80
2018-06-27T09:43:38.885Z,0.90
2018-06-27T09:46:07.715Z,0.80
2018-06-27T09:48:36.706Z,0.85
2018-06-27T09:51:05.792Z,0.90
2018-06-27T09:53:34.995Z,0.90
2018-06-27T09:56:04.227Z,1.10
2018-06-27T09:58:33.450Z,1.00
2018-06-27T10:01:02.485Z,0.80
2018-06-27T10:03:31.534Z,0.93
2018-06-27T10:06:00.571Z,1.00
2018-06-27T10:08:29.538Z,0.90
2018-06-27T10:10:58.382Z,1.00
2018-06-27T10:13:27.489Z,0.90
2018-06-27T10:15:56.479Z,0.70
2018-06-27T10:18:25.780Z,1.15
2018-06-27T10:20:55.086Z,0.80
2018-06-27T10:23:24.214Z,0.85
2018-06-27T10:25:53.170Z,0.90
2018-06-27T10:28:22.327Z,0.80
2018-06-27T10:30:51.531Z,0.90
2018-06-27T10:33:20.476Z,0.80
2018-06-27T10:35:49.607Z,1.00
2018-06-27T10:38:18.488Z,0.90
2018-06-27T10:40:47.427Z,1.00
2018-06-27T10:43:16.452Z,1.07
2018-06-27T10:45:45.438Z,1.10
2018-06-27T10:48:14.714Z,0.88
2018-06-27T10:50:43.866Z,0.80
2018-06-27T10:53:13.024Z,0.95
2018-06-27T10:55:42.062Z,0.90
2018-06-27T10:58:11.169Z,1.20
2018-06-27T11:00:40.163Z,0.90
2018-06-27T11:03:09.212Z,0.90
2018-06-27T11:05:38.162Z,0.90
2018-06-27T11:08:07.283Z,0.80
2018-06-27T11:10:36.354Z,0.62
2018-06-27T11:13:05.220Z,1.00
2018-06-27T11:15:34.749Z,0.78
2018-06-27T11:18:03.968Z,1.00
2018-06-27T11:20:32.905Z,0.90
2018-06-27T11:23:02.022Z,1.00
2018-06-27T11:25:31.077Z,0.93
2018-06-27T11:27:59.943Z,0.70
2018-06-27T11:30:28.940Z,0.88
2018-06-27T11:32:58.080Z,1.22
2018-06-27T11:35:27.133Z,0.90
2018-06-27T11:37:56.206Z,1.30
2018-06-27T11:40:25.185Z,0.88
2018-06-27T11:42:54.232Z,0.93
2018-06-27T11:45:23.281Z,1.22
2018-06-27T11:47:52.223Z,0.90
2018-06-27T11:50:21.109Z,1.10
2018-06-27T11:52:50.325Z,1.00
2018-06-27T11:55:19.311Z,1.00
2018-06-27T11:57:48.275Z,0.90
2018-06-27T12:00:17.455Z,0.80
2018-06-27T12:02:46.467Z,1.47
2018-06-27T12:05:15.601Z,0.95
2018-06-27T12:07:44.594Z,0.98
2018-06-27T12:10:13.485Z,1.00
2018-06-27T12:12:42.477Z,0.95
2018-06-27T12:15:11.517Z,1.10
2018-06-27T12:17:40.455Z,1.10
2018-06-27T12:20:09.342Z,1.00
2018-06-27T12:22:38.364Z,0.90
2018-06-27T12:25:07.359Z,0.93
2018-06-27T12:27:36.341Z,0.90
2018-06-27T12:30:05.754Z,0.80
2018-06-27T12:32:34.698Z,0.90
2018-06-27T12:35:03.630Z,0.93
2018-06-27T12:37:32.629Z,0.80
2018-06-27T12:40:01.811Z,0.80
2018-06-27T12:42:30.553Z,1.00
2018-06-27T12:44:59.501Z,1.27
2018-06-27T12:47:28.542Z,0.90
2018-06-27T12:49:57.601Z,1.02
2018-06-27T12:52:26.704Z,0.90
2018-06-27T12:55:03.657Z,0.70
2018-06-27T12:57:33.546Z,0.78
2018-06-27T13:00:02.908Z,0.98
2018-06-27T13:02:31.888Z,0.80
2018-06-27T13:05:01.001Z,0.78
2018-06-27T13:07:30.062Z,0.75
2018-06-27T13:09:58.968Z,0.88
2018-06-27T13:12:27.947Z,1.07
2018-06-27T13:14:56.855Z,0.80
2018-06-27T13:17:25.762Z,1.00
2018-06-27T13:19:54.791Z,0.90
2018-06-27T13:22:23.682Z,0.70
2018-06-27T13:24:52.671Z,0.80
2018-06-27T13:27:21.794Z,0.80
2018-06-27T13:29:50.814Z,0.70
2018-06-27T13:32:19.946Z,0.70
2018-06-27T13:34:49.116Z,0.70
2018-06-27T13:37:18.065Z,0.90
2018-06-27T13:39:47.039Z,0.70
2018-06-27T13:42:16.089Z,0.88
2018-06-27T13:44:44.990Z,0.65
2018-06-27T13:47:14.010Z,0.82
2018-06-27T13:49:42.977Z,0.80
2018-06-27T13:52:11.899Z,0.68
2018-06-27T13:54:43.635Z,0.60
2018-06-27T13:57:13.389Z,0.80
2018-06-27T13:59:42.404Z,0.70
2018-06-27T14:02:11.317Z,0.60
2018-06-27T14:04:40.319Z,0.70
2018-06-27T14:07:09.255Z,0.85
2018-06-27T14:09:38.565Z,0.80
2018-06-27T14:12:07.485Z,0.80
2018-06-27T14:14:36.361Z,0.70
2018-06-27T14:17:05.393Z,0.65
2018-06-27T14:19:34.581Z,0.70
2018-06-27T14:22:03.746Z,0.85
2018-06-27T14:24:33.174Z,0.70
2018-06-27T14:27:02.259Z,0.88
2018-06-27T14:29:31.479Z,0.90
2018-06-27T14:32:00.584Z,0.88
2018-06-27T14:34:29.576Z,0.93
2018-06-27T14:36:58.687Z,1.05
2018-06-27T14:39:27.873Z,1.02
2018-06-27T14:41:56.960Z,1.20
2018-06-27T14:44:26.012Z,1.10
2018-06-27T14:46:55.227Z,1.00
2018-06-27T14:49:24.308Z,0.95
2018-06-27T14:51:53.616Z,1.00
2018-06-27T14:54:22.721Z,1.15
2018-06-27T14:56:51.703Z,0.95
2018-06-27T14:59:20.723Z,1.10
2018-06-27T15:01:49.617Z,1.00
2018-06-27T15:04:18.633Z,0.90
2018-06-27T15:06:47.656Z,1.00
2018-06-27T15:09:16.724Z,1.00
2018-06-27T15:11:45.814Z,0.80
2018-06-27T15:14:14.816Z,1.00
2018-06-27T15:16:44.019Z,1.12
2018-06-27T15:19:13.260Z,1.02
2018-06-27T15:21:42.546Z,1.07
2018-06-27T15:24:11.593Z,1.17
2018-06-27T15:26:40.528Z,1.00
2018-06-27T15:29:09.712Z,1.42
2018-06-27T15:31:38.749Z,1.40
2018-06-27T15:34:07.966Z,1.37
2018-06-27T15:36:36.991Z,1.45
2018-06-27T15:39:08.281Z,1.20
2018-06-27T15:41:37.832Z,1.20
2018-06-27T15:44:07.497Z,1.40
2018-06-27T15:46:36.917Z,1.60
2018-06-27T15:49:07.747Z,1.47
2018-06-27T15:51:36.847Z,1.30
2018-06-27T15:54:06.010Z,1.45
2018-06-27T15:56:35.138Z,1.37
2018-06-27T15:59:04.142Z,1.40
2018-06-27T16:01:33.181Z,1.60
2018-06-27T16:04:02.002Z,1.40
2018-06-27T16:06:31.168Z,1.55
2018-06-27T16:09:00.163Z,1.45
2018-06-27T16:11:29.279Z,1.37
2018-06-27T16:13:58.334Z,1.60
2018-06-27T16:16:27.405Z,1.52
2018-06-27T16:18:56.624Z,1.67
2018-06-27T16:21:25.645Z,1.67
2018-06-27T16:23:54.802Z,1.87
2018-06-27T16:26:23.761Z,1.67
2018-06-27T16:28:52.982Z,1.80
2018-06-27T16:31:22.182Z,1.85
2018-06-27T16:33:51.133Z,1.70
2018-06-27T16:36:20.203Z,1.70
2018-06-27T16:38:49.130Z,1.75
2018-06-27T16:41:18.262Z,1.60
2018-06-27T16:43:47.453Z,1.40
2018-06-27T16:46:16.719Z,1.60
2018-06-27T16:48:45.964Z,1.60
2018-06-27T16:51:15.132Z,1.67
2018-06-27T16:53:44.332Z,1.80
2018-06-27T16:56:13.406Z,1.85
2018-06-27T16:58:42.659Z,1.98
2018-06-27T17:01:11.788Z,1.72
2018-06-27T17:03:40.774Z,1.67
2018-06-27T17:06:09.772Z,1.75
2018-06-27T17:08:39.047Z,1.90
2018-06-27T17:11:08.101Z,1.75
2018-06-27T17:13:37.303Z,2.10
2018-06-27T17:16:06.536Z,2.30
2018-06-27T17:18:35.794Z,2.00
2018-06-27T17:21:05.087Z,2.30
2018-06-27T17:23:34.355Z,2.15
2018-06-27T17:26:03.324Z,2.10
2018-06-27T17:28:32.724Z,2.20
2018-06-27T17:31:03.471Z,2.30
2018-06-27T17:33:33.343Z,1.92
2018-06-27T17:36:02.128Z,2.33
2018-06-27T17:38:31.001Z,2.87
2018-06-27T17:40:59.926Z,2.55
2018-06-27T17:43:28.907Z,2.90
2018-06-27T17:45:57.867Z,3.02
2018-06-27T17:48:26.693Z,2.80
2018-06-27T17:50:55.987Z,3.00
2018-06-27T17:53:24.884Z,2.50
2018-06-27T17:55:53.643Z,2.72
2018-06-27T17:58:22.769Z,2.72
2018-06-27T18:00:51.863Z,3.08
2018-06-27T18:03:21.105Z,3.33
2018-06-27T18:05:50.164Z,2.98
2018-06-27T18:08:19.210Z,2.50
2018-06-27T18:10:48.522Z,2.40
2018-06-27T18:13:17.640Z,2.77
2018-06-27T18:15:47.204Z,2.45
2018-06-27T18:18:16.211Z,2.20
2018-06-27T18:20:45.340Z,2.45
2018-06-27T18:23:14.618Z,1.92
2018-06-27T18:25:43.601Z,2.40
2018-06-27T18:28:12.678Z,2.10
2018-06-27T18:30:41.735Z,2.55
2018-06-27T18:33:11.010Z,2.37
2018-06-27T18:35:40.255Z,1.80
2018-06-27T18:38:09.344Z,2.22
2018-06-27T18:40:38.505Z,2.15
2018-06-27T18:43:07.531Z,2.42
2018-06-27T18:45:36.667Z,2.30
2018-06-27T18:48:05.930Z,2.00
2018-06-27T18:50:34.995Z,2.45
2018-06-27T18:53:03.901Z,2.35
2018-06-27T18:55:33.058Z,2.40
2018-06-27T18:58:02.171Z,2.33
2018-06-27T19:00:31.254Z,2.47
2018-06-27T19:03:00.398Z,2.83
2018-06-27T19:05:29.656Z,2.87
2018-06-27T19:07:58.975Z,2.85
2018-06-27T19:10:27.990Z,3.02
2018-06-27T19:12:57.043Z,2.77
2018-06-27T19:15:26.143Z,2.70
2018-06-27T19:17:55.406Z,3.08
2018-06-27T19:20:24.458Z,2.80
2018-06-27T19:22:53.486Z,2.70
2018-06-27T19:25:22.952Z,3.10
2018-06-27T19:27:52.140Z,2.85
2018-06-27T19:30:21.401Z,2.98
2018-06-27T19:32:50.641Z,3.05
2018-06-27T19:35:19.827Z,2.70
2018-06-27T19:37:49.163Z,3.15
2018-06-27T19:40:18.555Z,2.80
2018-06-27T19:42:47.654Z,2.95
2018-06-27T19:45:16.835Z,2.70
2018-06-27T19:47:46.281Z,3.42
2018-06-27T19:50:15.742Z,2.90
2018-06-27T19:52:45.035Z,2.92
2018-06-27T19:55:14.300Z,3.27
2018-06-27T19:57:43.458Z,3.52
2018-06-27T20:00:12.479Z,3.30
2018-06-27T20:02:41.911Z,2.95
2018-06-27T20:05:11.223Z,3.05
2018-06-27T20:07:40.520Z,3.00
2018-06-27T20:10:09.695Z,3.00
2018-06-27T20:12:39.863Z,2.62
2018-06-27T20:15:09.340Z,3.50
2018-06-27T20:17:38.396Z,3.35
2018-06-27T20:20:08.615Z,3.05
2018-06-27T20:22:37.953Z,3.02
2018-06-27T20:25:07.533Z,2.83
2018-06-27T20:27:37.110Z,3.12
2018-06-27T20:30:06.879Z,2.67
2018-06-27T20:32:36.107Z,3.10
2018-06-27T20:35:05.579Z,2.62
2018-06-27T20:37:34.834Z,2.83
2018-06-27T20:40:03.954Z,2.75
2018-06-27T20:42:33.181Z,3.08
2018-06-27T20:45:02.882Z,2.70
2018-06-27T20:47:31.784Z,2.45
2018-06-27T20:50:01.010Z,2.52
2018-06-27T20:52:30.132Z,3.27
2018-06-27T20:54:59.095Z,2.72
2018-06-27T20:57:28.499Z,2.62
2018-06-27T20:59:57.655Z,2.90
2018-06-27T21:02:26.865Z,2.83
2018-06-27T21:04:56.068Z,2.70
2018-06-27T21:07:25.172Z,2.52
2018-06-27T21:09:54.211Z,2.50
2018-06-27T21:12:23.390Z,2.40
2018-06-27T21:14:52.609Z,2.58
2018-06-27T21:17:21.796Z,2.72
2018-06-27T21:19:51.075Z,2.20
2018-06-27T21:22:20.250Z,2.60
2018-06-27T21:24:49.468Z,2.27
2018-06-27T21:27:18.632Z,2.33
2018-06-27T21:29:47.906Z,2.30
2018-06-27T21:32:16.963Z,2.30
2018-06-27T21:34:46.799Z,2.55
2018-06-27T21:37:15.905Z,2.50
2018-06-27T21:39:44.967Z,2.40
2018-06-27T21:42:14.314Z,2.05
2018-06-27T21:44:43.421Z,2.40
2018-06-27T21:47:12.451Z,2.20
2018-06-27T21:49:41.624Z,1.80
2018-06-27T21:52:10.595Z,2.25
2018-06-27T21:54:39.815Z,2.12
2018-06-27T21:57:08.943Z,2.20
2018-06-27T21:59:38.143Z,1.92
2018-06-27T22:02:07.466Z,1.60
2018-06-27T22:04:36.843Z,2.17
2018-06-27T22:07:06.261Z,1.82
2018-06-27T22:09:35.495Z,1.77
2018-06-27T22:12:04.647Z,2.10
2018-06-27T22:14:33.853Z,1.77
2018-06-27T22:17:03.197Z,2.10
2018-06-27T22:19:32.526Z,2.15
2018-06-27T22:22:01.615Z,2.02
2018-06-27T22:24:30.810Z,2.10
2018-06-27T22:27:00.205Z,1.67
2018-06-27T22:29:29.524Z,1.67
2018-06-27T22:31:58.552Z,1.90
2018-06-27T22:34:27.642Z,2.22
2018-06-27T22:36:56.676Z,1.70
2018-06-27T22:39:25.960Z,1.60
2018-06-27T22:41:55.096Z,1.80
2018-06-27T22:44:24.118Z,1.60
2018-06-27T22:46:53.253Z,1.72
2018-06-27T22:49:22.475Z,1.70
2018-06-27T22:51:51.346Z,1.52
2018-06-27T22:54:20.404Z,1.57
2018-06-27T22:56:49.347Z,1.70
2018-06-27T22:59:18.330Z,1.57
2018-06-27T23:01:47.336Z,1.98
2018-06-27T23:04:16.469Z,1.60
2018-06-27T23:06:45.484Z,1.60
2018-06-27T23:09:14.322Z,1.50
2018-06-27T23:11:43.379Z,1.67
2018-06-27T23:14:12.350Z,1.50
2018-06-27T23:16:41.552Z,1.50
2018-06-27T23:19:10.651Z,1.45
2018-06-27T23:21:39.679Z,1.42
2018-06-27T23:24:09.195Z,1.62
2018-06-27T23:26:39.314Z,2.10
2018-06-27T23:29:09.234Z,1.90
2018-06-27T23:31:39.027Z,1.72
2018-06-27T23:34:08.855Z,2.37
2018-06-27T23:36:38.707Z,1.60
2018-06-27T23:39:11.538Z,1.62
2018-06-27T23:41:41.822Z,1.62
2018-06-27T23:44:10.859Z,2.17
2018-06-27T23:46:40.166Z,1.70
2018-06-27T23:49:09.525Z,1.65
2018-06-27T23:51:38.967Z,1.57
2018-06-27T23:54:08.586Z,1.20
2018-06-27T23:56:38.394Z,1.65
2018-06-27T23:59:08.305Z,1.55
